Terminal Aerodrome Forecast
Issued by NWS

Current Version | Previous Version | Graphics & Text | Print | Product List | Glossary On
Versions: 1 2 3 4 5 6 7 8 9 10 11 12 13 14 15 16 17 18 19 20 21 22 23
000
FTUS41 KRLX 011100
TAFCKB
TAF
KCKB 011134Z 0112/0212 00000KT P6SM -SN OVC035
     FM011400 VRB03KT 2SM -SN BR OVC012
     FM011700 20004KT 4SM -RA BR OVC015=

USA.gov is the U.S. government's official web portal to all federal, state and local government web resources and services.